HYM2344 LROP-LUKK
Flight info
| Callsign | HYM2344 |
|---|---|
| Flight time | 0h 40m |
| Altitude | 29000 |
| Route | DENAK DCT URELA DCT FOCSA DCT KENUX DCT BCU DCT BUSES |
| Aircraft | A320/M-SDE3FGHIRWY/LB1 |
Departure
| Time | 2026-05-06 14:34 |
|---|---|
| Airport | Bucharest Henri Coandă International Airport (LROP) |
Arrival
| Time | 2026-05-06 15:14 |
|---|---|
| Airport | Chişinău International Airport (LUKK) |
| Time | Latitude | Longitude | Altitude | Speed | Heading |
|---|---|---|---|---|---|
| 2026-05-06 14:16 | 44.56842 | 26.08065 | 182 ft | 0 kts | 354° |
| 2026-05-06 14:30 | 44.56844 | 26.08065 | 181 ft | 1 kts | 354° |
| 2026-05-06 14:31 | 44.56873 | 26.08058 | 181 ft | 5 kts | 336° |
| 2026-05-06 14:31 | 44.56877 | 26.08004 | 181 ft | 7 kts | 224° |
| 2026-05-06 14:31 | 44.56819 | 26.07993 | 181 ft | 9 kts | 174° |
| 2026-05-06 14:31 | 44.56747 | 26.07955 | 181 ft | 12 kts | 233° |
| 2026-05-06 14:32 | 44.56720 | 26.07823 | 181 ft | 14 kts | 253° |
| 2026-05-06 14:32 | 44.56685 | 26.07692 | 181 ft | 14 kts | 227° |
| 2026-05-06 14:32 | 44.56587 | 26.07672 | 181 ft | 14 kts | 173° |
| 2026-05-06 14:32 | 44.56486 | 26.07696 | 181 ft | 14 kts | 144° |
| 2026-05-06 14:33 | 44.56476 | 26.07801 | 181 ft | 13 kts | 85° |
| 2026-05-06 14:33 | 44.56477 | 26.07830 | 181 ft | 4 kts | 85° |
| 2026-05-06 14:33 | 44.56496 | 26.08091 | 182 ft | 62 kts | 85° |
| 2026-05-06 14:33 | 44.56572 | 26.09076 | 182 ft | 130 kts | 84° |
| 2026-05-06 14:34 | 44.56689 | 26.10605 | 362 ft | 167 kts | 83° |
| 2026-05-06 14:34 | 44.56819 | 26.12217 | 979 ft | 170 kts | 85° |
| 2026-05-06 14:34 | 44.56939 | 26.13864 | 1666 ft | 172 kts | 84° |
| 2026-05-06 14:34 | 44.57077 | 26.15543 | 2384 ft | 173 kts | 83° |
| 2026-05-06 14:35 | 44.57220 | 26.17361 | 2920 ft | 189 kts | 84° |
| 2026-05-06 14:35 | 44.57358 | 26.19342 | 3436 ft | 205 kts | 85° |
| 2026-05-06 14:35 | 44.57509 | 26.21484 | 3820 ft | 230 kts | 84° |
| 2026-05-06 14:35 | 44.57679 | 26.23869 | 4376 ft | 248 kts | 84° |
| 2026-05-06 14:36 | 44.57816 | 26.25737 | 4799 ft | 261 kts | 84° |
| 2026-05-06 14:36 | 44.58006 | 26.28272 | 5547 ft | 269 kts | 84° |
| 2026-05-06 14:36 | 44.58202 | 26.30936 | 6459 ft | 272 kts | 84° |
| 2026-05-06 14:36 | 44.58425 | 26.33662 | 7339 ft | 276 kts | 79° |
| 2026-05-06 14:37 | 44.59237 | 26.36109 | 8124 ft | 283 kts | 47° |
| 2026-05-06 14:37 | 44.60880 | 26.37603 | 8936 ft | 288 kts | 17° |
| 2026-05-06 14:37 | 44.62909 | 26.38033 | 9776 ft | 292 kts | 5° |
| 2026-05-06 14:37 | 44.64974 | 26.38239 | 10518 ft | 298 kts | 5° |
| 2026-05-06 14:38 | 44.67101 | 26.38476 | 10931 ft | 314 kts | 5° |
| 2026-05-06 14:38 | 44.69478 | 26.38785 | 11300 ft | 333 kts | 6° |
| 2026-05-06 14:38 | 44.71881 | 26.39129 | 11623 ft | 351 kts | 6° |
| 2026-05-06 14:38 | 44.74395 | 26.39507 | 11924 ft | 368 kts | 6° |
| 2026-05-06 14:39 | 44.77037 | 26.39913 | 12293 ft | 382 kts | 6° |
| 2026-05-06 14:39 | 44.79767 | 26.40338 | 12943 ft | 387 kts | 7° |
| 2026-05-06 14:39 | 44.82468 | 26.40761 | 13632 ft | 390 kts | 7° |
| 2026-05-06 14:39 | 44.85197 | 26.41190 | 14274 ft | 394 kts | 7° |
| 2026-05-06 14:40 | 44.87987 | 26.41630 | 14901 ft | 398 kts | 7° |
| 2026-05-06 14:40 | 44.90819 | 26.42079 | 15519 ft | 402 kts | 7° |
| 2026-05-06 14:40 | 44.93660 | 26.42530 | 16117 ft | 406 kts | 7° |
| 2026-05-06 14:40 | 44.96525 | 26.42984 | 16700 ft | 410 kts | 7° |
| 2026-05-06 14:41 | 44.99481 | 26.43462 | 17278 ft | 414 kts | 8° |
| 2026-05-06 14:41 | 45.02387 | 26.44094 | 17838 ft | 417 kts | 10° |
| 2026-05-06 14:41 | 45.05264 | 26.44809 | 18390 ft | 420 kts | 11° |
| 2026-05-06 14:41 | 45.08159 | 26.45548 | 18920 ft | 422 kts | 10° |
| 2026-05-06 14:42 | 45.11076 | 26.46309 | 19655 ft | 419 kts | 9° |
| 2026-05-06 14:42 | 45.13984 | 26.47049 | 20425 ft | 415 kts | 9° |
| 2026-05-06 14:42 | 45.16902 | 26.47783 | 20952 ft | 417 kts | 9° |
| 2026-05-06 14:42 | 45.19871 | 26.48530 | 21431 ft | 421 kts | 9° |
| 2026-05-06 14:43 | 45.22756 | 26.49258 | 21895 ft | 424 kts | 8° |
| 2026-05-06 14:43 | 45.25657 | 26.49992 | 22356 ft | 427 kts | 8° |
| 2026-05-06 14:43 | 45.28693 | 26.50763 | 22813 ft | 430 kts | 8° |
| 2026-05-06 14:43 | 45.31807 | 26.51554 | 23284 ft | 433 kts | 8° |
| 2026-05-06 14:44 | 45.34910 | 26.52345 | 23741 ft | 435 kts | 8° |
| 2026-05-06 14:44 | 45.37906 | 26.53109 | 24192 ft | 437 kts | 8° |
| 2026-05-06 14:44 | 45.41038 | 26.53911 | 24797 ft | 436 kts | 8° |
| 2026-05-06 14:45 | 45.47075 | 26.55457 | 25919 ft | 433 kts | 7° |
| 2026-05-06 14:45 | 45.50077 | 26.56225 | 26416 ft | 433 kts | 7° |
| 2026-05-06 14:45 | 45.53056 | 26.56985 | 26894 ft | 434 kts | 7° |
| 2026-05-06 14:45 | 45.56050 | 26.57747 | 27376 ft | 433 kts | 7° |
| 2026-05-06 14:46 | 45.59034 | 26.58701 | 27745 ft | 439 kts | 17° |
| 2026-05-06 14:46 | 45.61783 | 26.60901 | 28047 ft | 448 kts | 33° |
| 2026-05-06 14:46 | 45.64293 | 26.63720 | 28436 ft | 450 kts | 36° |
| 2026-05-06 14:46 | 45.66737 | 26.66587 | 28729 ft | 453 kts | 37° |
| 2026-05-06 14:47 | 45.69220 | 26.69493 | 28950 ft | 457 kts | 36° |
| 2026-05-06 14:47 | 45.74379 | 26.75388 | 28980 ft | 459 kts | 36° |
| 2026-05-06 14:48 | 45.79504 | 26.81148 | 28984 ft | 458 kts | 35° |
| 2026-05-06 14:48 | 45.84517 | 26.86753 | 28984 ft | 457 kts | 35° |
| 2026-05-06 14:49 | 45.89554 | 26.92391 | 28984 ft | 457 kts | 35° |
| 2026-05-06 14:49 | 45.94546 | 26.97987 | 28983 ft | 455 kts | 35° |
| 2026-05-06 14:50 | 45.99538 | 27.03599 | 28985 ft | 454 kts | 35° |
| 2026-05-06 14:50 | 46.04532 | 27.09226 | 28985 ft | 451 kts | 35° |
| 2026-05-06 14:51 | 46.09501 | 27.14835 | 28984 ft | 449 kts | 34° |
| 2026-05-06 14:51 | 46.14405 | 27.20357 | 28984 ft | 449 kts | 34° |
| 2026-05-06 14:52 | 46.19275 | 27.25852 | 28983 ft | 448 kts | 34° |
| 2026-05-06 14:52 | 46.24186 | 27.31425 | 28983 ft | 448 kts | 34° |
| 2026-05-06 14:53 | 46.29099 | 27.37018 | 28981 ft | 448 kts | 34° |
| 2026-05-06 14:53 | 46.34019 | 27.42638 | 28984 ft | 449 kts | 35° |
| 2026-05-06 14:54 | 46.38931 | 27.48260 | 28984 ft | 449 kts | 35° |
| 2026-05-06 14:54 | 46.43907 | 27.53972 | 28711 ft | 448 kts | 34° |
| 2026-05-06 14:54 | 46.46352 | 27.56783 | 28462 ft | 445 kts | 34° |
| 2026-05-06 14:55 | 46.48766 | 27.59562 | 28208 ft | 442 kts | 35° |
| 2026-05-06 14:55 | 46.51282 | 27.62458 | 27884 ft | 440 kts | 35° |
| 2026-05-06 14:55 | 46.53834 | 27.65399 | 27406 ft | 438 kts | 36° |
| 2026-05-06 14:55 | 46.56347 | 27.68313 | 26794 ft | 438 kts | 36° |
| 2026-05-06 14:56 | 46.58875 | 27.71253 | 26114 ft | 438 kts | 36° |
| 2026-05-06 14:56 | 46.61377 | 27.74162 | 25417 ft | 438 kts | 36° |
| 2026-05-06 14:56 | 46.63810 | 27.76989 | 24725 ft | 438 kts | 36° |
| 2026-05-06 14:56 | 46.66203 | 27.79768 | 24007 ft | 438 kts | 37° |
| 2026-05-06 14:57 | 46.68634 | 27.82593 | 23302 ft | 436 kts | 37° |
| 2026-05-06 14:57 | 46.71062 | 27.85419 | 22828 ft | 429 kts | 37° |
| 2026-05-06 14:57 | 46.73401 | 27.88144 | 22342 ft | 423 kts | 37° |
| 2026-05-06 14:57 | 46.75728 | 27.90855 | 21843 ft | 418 kts | 37° |
| 2026-05-06 14:58 | 46.77996 | 27.93501 | 21342 ft | 414 kts | 37° |
| 2026-05-06 14:58 | 46.80244 | 27.96127 | 20845 ft | 410 kts | 37° |
| 2026-05-06 14:58 | 46.82513 | 27.98781 | 20340 ft | 406 kts | 37° |
| 2026-05-06 14:58 | 46.84716 | 28.01363 | 19839 ft | 402 kts | 38° |
| 2026-05-06 14:59 | 46.86940 | 28.03970 | 19329 ft | 399 kts | 38° |
| 2026-05-06 14:59 | 46.89180 | 28.06600 | 18810 ft | 395 kts | 38° |
| 2026-05-06 14:59 | 46.91321 | 28.09433 | 18290 ft | 393 kts | 46° |
| 2026-05-06 14:59 | 46.93104 | 28.12640 | 17768 ft | 391 kts | 54° |
| 2026-05-06 15:00 | 46.94556 | 28.16200 | 17241 ft | 389 kts | 61° |
| 2026-05-06 15:00 | 46.95865 | 28.19928 | 16703 ft | 387 kts | 62° |
| 2026-05-06 15:00 | 46.97133 | 28.23627 | 16180 ft | 384 kts | 62° |
| 2026-05-06 15:00 | 46.98359 | 28.27203 | 15669 ft | 388 kts | 63° |
| 2026-05-06 15:01 | 46.99622 | 28.30821 | 15151 ft | 390 kts | 63° |
| 2026-05-06 15:01 | 47.00865 | 28.34372 | 14521 ft | 389 kts | 63° |
| 2026-05-06 15:01 | 47.02128 | 28.38043 | 13337 ft | 390 kts | 63° |
| 2026-05-06 15:01 | 47.03388 | 28.41712 | 11764 ft | 389 kts | 63° |
| 2026-05-06 15:02 | 47.04659 | 28.45402 | 10582 ft | 387 kts | 63° |
| 2026-05-06 15:02 | 47.05881 | 28.48947 | 10112 ft | 378 kts | 63° |
| 2026-05-06 15:02 | 47.07061 | 28.52375 | 9903 ft | 363 kts | 63° |
| 2026-05-06 15:02 | 47.08191 | 28.55657 | 9784 ft | 347 kts | 63° |
| 2026-05-06 15:03 | 47.09288 | 28.58849 | 9674 ft | 333 kts | 63° |
| 2026-05-06 15:03 | 47.10338 | 28.61902 | 9567 ft | 313 kts | 63° |
| 2026-05-06 15:03 | 47.11316 | 28.64717 | 9468 ft | 290 kts | 63° |
| 2026-05-06 15:03 | 47.12242 | 28.67395 | 9379 ft | 286 kts | 64° |
| 2026-05-06 15:04 | 47.13163 | 28.70078 | 9233 ft | 285 kts | 64° |
| 2026-05-06 15:04 | 47.14091 | 28.72793 | 9066 ft | 284 kts | 64° |
| 2026-05-06 15:04 | 47.15005 | 28.75471 | 8891 ft | 284 kts | 64° |
| 2026-05-06 15:04 | 47.15920 | 28.78155 | 8649 ft | 283 kts | 64° |
| 2026-05-06 15:05 | 47.16816 | 28.80784 | 8368 ft | 282 kts | 64° |
| 2026-05-06 15:05 | 47.17673 | 28.83419 | 8054 ft | 280 kts | 72° |
| 2026-05-06 15:05 | 47.17859 | 28.86366 | 7711 ft | 275 kts | 102° |
| 2026-05-06 15:05 | 47.17063 | 28.88949 | 7398 ft | 271 kts | 129° |
| 2026-05-06 15:06 | 47.15720 | 28.91037 | 7106 ft | 268 kts | 135° |
| 2026-05-06 15:06 | 47.14347 | 28.93025 | 6803 ft | 265 kts | 135° |
| 2026-05-06 15:06 | 47.12983 | 28.95006 | 6500 ft | 263 kts | 135° |
| 2026-05-06 15:06 | 47.11641 | 28.96972 | 6198 ft | 260 kts | 135° |
| 2026-05-06 15:07 | 47.10294 | 28.98960 | 5893 ft | 258 kts | 134° |
| 2026-05-06 15:07 | 47.08962 | 29.00931 | 5591 ft | 256 kts | 134° |
| 2026-05-06 15:07 | 47.07646 | 29.02889 | 5269 ft | 256 kts | 135° |
| 2026-05-06 15:07 | 47.06313 | 29.04869 | 4905 ft | 260 kts | 136° |
| 2026-05-06 15:08 | 47.04960 | 29.06873 | 4559 ft | 261 kts | 136° |
| 2026-05-06 15:08 | 47.03655 | 29.08804 | 4257 ft | 260 kts | 136° |
| 2026-05-06 15:08 | 47.02343 | 29.10744 | 3966 ft | 259 kts | 136° |
| 2026-05-06 15:08 | 47.01019 | 29.12700 | 3680 ft | 257 kts | 135° |
| 2026-05-06 15:09 | 46.99720 | 29.14615 | 3411 ft | 253 kts | 135° |
| 2026-05-06 15:09 | 46.98426 | 29.16530 | 3150 ft | 248 kts | 136° |
| 2026-05-06 15:09 | 46.97184 | 29.18369 | 3135 ft | 233 kts | 137° |
| 2026-05-06 15:09 | 46.95799 | 29.19650 | 3012 ft | 220 kts | 171° |
| 2026-05-06 15:10 | 46.94351 | 29.19308 | 2989 ft | 204 kts | 212° |
| 2026-05-06 15:10 | 46.93410 | 29.17865 | 3033 ft | 181 kts | 244° |
| 2026-05-06 15:10 | 46.93145 | 29.16093 | 3005 ft | 155 kts | 268° |
| 2026-05-06 15:10 | 46.93138 | 29.14552 | 2937 ft | 131 kts | 270° |
| 2026-05-06 15:11 | 46.93140 | 29.13075 | 2962 ft | 152 kts | 269° |
| 2026-05-06 15:11 | 46.93113 | 29.11387 | 2734 ft | 153 kts | 268° |
| 2026-05-06 15:11 | 46.93111 | 29.09791 | 2427 ft | 144 kts | 269° |
| 2026-05-06 15:11 | 46.93097 | 29.08255 | 2007 ft | 143 kts | 268° |
| 2026-05-06 15:12 | 46.93095 | 29.06735 | 1659 ft | 140 kts | 268° |
| 2026-05-06 15:12 | 46.93078 | 29.05242 | 1415 ft | 138 kts | 266° |
| 2026-05-06 15:12 | 46.93028 | 29.03723 | 1251 ft | 143 kts | 267° |
| 2026-05-06 15:12 | 46.93009 | 29.02181 | 1121 ft | 145 kts | 267° |
| 2026-05-06 15:13 | 46.92969 | 29.00623 | 999 ft | 151 kts | 263° |
| 2026-05-06 15:13 | 46.92917 | 28.99005 | 841 ft | 152 kts | 265° |
| 2026-05-06 15:13 | 46.92884 | 28.97407 | 650 ft | 149 kts | 266° |
| 2026-05-06 15:13 | 46.92845 | 28.95856 | 411 ft | 146 kts | 265° |
| 2026-05-06 15:14 | 46.92811 | 28.94376 | 338 ft | 130 kts | 265° |
| 2026-05-06 15:14 | 46.92781 | 28.93241 | 337 ft | 83 kts | 268° |
| 2026-05-06 15:14 | 46.92760 | 28.92613 | 336 ft | 49 kts | 266° |
| 2026-05-06 15:14 | 46.92757 | 28.92145 | 336 ft | 33 kts | 268° |
| 2026-05-06 15:15 | 46.92807 | 28.92000 | 336 ft | 14 kts | 351° |
| 2026-05-06 15:15 | 46.92911 | 28.91992 | 336 ft | 12 kts | 357° |
| 2026-05-06 15:15 | 46.92932 | 28.91991 | 336 ft | 0 kts | 357° |
| 2026-05-06 15:15 | 46.92944 | 28.91990 | 336 ft | 2 kts | 357° |
| 2026-05-06 15:16 | 46.92966 | 28.91988 | 336 ft | 4 kts | 358° |
| 2026-05-06 15:16 | 46.93006 | 28.91988 | 336 ft | 8 kts | 359° |
| 2026-05-06 15:16 | 46.93089 | 28.91987 | 336 ft | 13 kts | 1° |
| 2026-05-06 15:16 | 46.93185 | 28.92013 | 336 ft | 14 kts | 12° |
| 2026-05-06 15:17 | 46.93261 | 28.92075 | 336 ft | 8 kts | 75° |
| 2026-05-06 15:17 | 46.93253 | 28.92170 | 336 ft | 9 kts | 98° |
| 2026-05-06 15:17 | 46.93244 | 28.92278 | 336 ft | 11 kts | 96° |
| 2026-05-06 15:17 | 46.93233 | 28.92419 | 336 ft | 16 kts | 97° |
| 2026-05-06 15:18 | 46.93217 | 28.92624 | 336 ft | 23 kts | 94° |
| 2026-05-06 15:18 | 46.93195 | 28.92895 | 336 ft | 27 kts | 97° |
| 2026-05-06 15:18 | 46.93172 | 28.93176 | 336 ft | 23 kts | 97° |
| 2026-05-06 15:18 | 46.93157 | 28.93376 | 336 ft | 12 kts | 91° |
| 2026-05-06 15:19 | 46.93211 | 28.93454 | 336 ft | 12 kts | 5° |
| 2026-05-06 15:19 | 46.93300 | 28.93469 | 336 ft | 13 kts | 7° |
| 2026-05-06 15:19 | 46.93375 | 28.93480 | 336 ft | 10 kts | 6° |
| 2026-05-06 15:19 | 46.93416 | 28.93479 | 336 ft | 5 kts | 338° |
| 2026-05-06 15:20 | 46.93418 | 28.93439 | 336 ft | 4 kts | 233° |
| 2026-05-06 15:20 | 46.93402 | 28.93427 | 336 ft | 1 kts | 193° |
| 2026-05-06 15:20 | 46.93395 | 28.93425 | 336 ft | 0 kts | 187° |